Nearby METAR Reports

 

NZWN - Wellington Intl, New Zealand
Distance from station: E 147km
Updated: 04/06/2020 20:00
Rain, Overcast
Rain, Overcast
 Wind from S
Wind: S 31 km/h
Temperature: 12°C
Dew Point: 11°C
Humidity: 94%
Barometer: 1005 hPa
Summary: Rain
Clouds: Overcast
Visibility: 7 km
Cloud details: Partly cloudy 305 m
Mostly cloudy 427 m
Overcast 1250 m
2020/06/04 08:00 NZWN 040800Z AUTO 17017KT 7000 RA SCT010/// BKN014/// OVC041/// 12/11 Q1005 TEMPO 4000 RA BKN008